sensor_id;sensor_type;location;lat;lon;timestamp;P1;durP1;ratioP1;P2;durP2;ratioP2
43319;SDS011;28914;48.722;9.332;2022-12-07T00:02:14;5.27;;;4.77;;
43319;SDS011;28914;48.722;9.332;2022-12-07T00:07:33;5.53;;;5.00;;
43319;SDS011;28914;48.722;9.332;2022-12-07T00:12:52;4.63;;;3.67;;
43319;SDS011;28914;48.722;9.332;2022-12-07T00:18:11;5.10;;;4.63;;
43319;SDS011;28914;48.722;9.332;2022-12-07T00:23:31;5.00;;;4.53;;
43319;SDS011;28914;48.722;9.332;2022-12-07T00:28:51;5.33;;;4.30;;
43319;SDS011;28914;48.722;9.332;2022-12-07T00:34:16;5.30;;;4.80;;
43319;SDS011;28914;48.722;9.332;2022-12-07T00:39:36;5.13;;;4.40;;
43319;SDS011;28914;48.722;9.332;2022-12-07T00:44:56;5.97;;;5.37;;
43319;SDS011;28914;48.722;9.332;2022-12-07T00:50:15;6.13;;;5.00;;
43319;SDS011;28914;48.722;9.332;2022-12-07T00:55:35;5.47;;;4.97;;
43319;SDS011;28914;48.722;9.332;2022-12-07T01:00:54;5.63;;;5.10;;
43319;SDS011;28914;48.722;9.332;2022-12-07T01:06:20;5.47;;;4.90;;
43319;SDS011;28914;48.722;9.332;2022-12-07T01:11:40;6.67;;;5.30;;
43319;SDS011;28914;48.722;9.332;2022-12-07T01:16:59;5.20;;;4.70;;
43319;SDS011;28914;48.722;9.332;2022-12-07T01:22:19;6.53;;;5.93;;
43319;SDS011;28914;48.722;9.332;2022-12-07T01:27:38;6.37;;;5.60;;
43319;SDS011;28914;48.722;9.332;2022-12-07T01:32:57;6.97;;;6.27;;
43319;SDS011;28914;48.722;9.332;2022-12-07T01:38:17;7.80;;;7.00;;
43319;SDS011;28914;48.722;9.332;2022-12-07T01:43:36;6.70;;;6.10;;
43319;SDS011;28914;48.722;9.332;2022-12-07T01:49:18;8.27;;;6.90;;
43319;SDS011;28914;48.722;9.332;2022-12-07T01:54:45;7.30;;;6.60;;
43319;SDS011;28914;48.722;9.332;2022-12-07T02:00:07;6.20;;;5.60;;
43319;SDS011;28914;48.722;9.332;2022-12-07T02:05:29;6.67;;;5.97;;
43319;SDS011;28914;48.722;9.332;2022-12-07T02:10:49;6.50;;;5.83;;
43319;SDS011;28914;48.722;9.332;2022-12-07T02:16:10;7.30;;;6.60;;
43319;SDS011;28914;48.722;9.332;2022-12-07T02:21:55;8.27;;;6.93;;
43319;SDS011;28914;48.722;9.332;2022-12-07T02:27:41;6.90;;;6.20;;
43319;SDS011;28914;48.722;9.332;2022-12-07T02:33:14;6.63;;;6.03;;
43319;SDS011;28914;48.722;9.332;2022-12-07T02:44:06;8.30;;;7.50;;
43319;SDS011;28914;48.722;9.332;2022-12-07T02:49:28;6.50;;;5.80;;
43319;SDS011;28914;48.722;9.332;2022-12-07T02:54:48;5.90;;;4.70;;
43319;SDS011;28914;48.722;9.332;2022-12-07T03:00:08;6.07;;;5.03;;
43319;SDS011;28914;48.722;9.332;2022-12-07T03:11:14;5.73;;;5.10;;
43319;SDS011;28914;48.722;9.332;2022-12-07T03:16:37;8.33;;;5.90;;
43319;SDS011;28914;48.722;9.332;2022-12-07T03:22:05;6.80;;;5.87;;
43319;SDS011;28914;48.722;9.332;2022-12-07T03:27:29;7.30;;;6.00;;
43319;SDS011;28914;48.722;9.332;2022-12-07T03:33:09;7.57;;;6.10;;
43319;SDS011;28914;48.722;9.332;2022-12-07T03:38:38;5.77;;;5.10;;
43319;SDS011;28914;48.722;9.332;2022-12-07T03:44:06;6.37;;;5.43;;
43319;SDS011;28914;48.722;9.332;2022-12-07T03:49:35;6.27;;;5.37;;
43319;SDS011;28914;48.722;9.332;2022-12-07T03:55:02;7.17;;;5.30;;
43319;SDS011;28914;48.722;9.332;2022-12-07T04:00:36;6.90;;;5.40;;
43319;SDS011;28914;48.722;9.332;2022-12-07T04:05:55;5.73;;;5.10;;
43319;SDS011;28914;48.722;9.332;2022-12-07T04:11:16;6.70;;;6.00;;
43319;SDS011;28914;48.722;9.332;2022-12-07T04:16:36;8.87;;;7.80;;
43319;SDS011;28914;48.722;9.332;2022-12-07T04:21:55;7.57;;;6.13;;
43319;SDS011;28914;48.722;9.332;2022-12-07T04:27:15;7.80;;;7.00;;
43319;SDS011;28914;48.722;9.332;2022-12-07T04:32:34;6.67;;;5.87;;
43319;SDS011;28914;48.722;9.332;2022-12-07T04:37:53;8.33;;;7.37;;
43319;SDS011;28914;48.722;9.332;2022-12-07T04:43:12;11.93;;;9.50;;
43319;SDS011;28914;48.722;9.332;2022-12-07T04:48:32;10.37;;;8.60;;
43319;SDS011;28914;48.722;9.332;2022-12-07T04:53:51;10.17;;;8.40;;
43319;SDS011;28914;48.722;9.332;2022-12-07T04:59:11;7.83;;;6.40;;
43319;SDS011;28914;48.722;9.332;2022-12-07T05:04:31;6.90;;;5.50;;
43319;SDS011;28914;48.722;9.332;2022-12-07T05:09:50;7.67;;;6.37;;
43319;SDS011;28914;48.722;9.332;2022-12-07T05:15:09;8.07;;;6.87;;
43319;SDS011;28914;48.722;9.332;2022-12-07T05:20:28;9.50;;;8.07;;
43319;SDS011;28914;48.722;9.332;2022-12-07T05:25:47;7.93;;;6.90;;
43319;SDS011;28914;48.722;9.332;2022-12-07T05:31:07;8.27;;;6.23;;
43319;SDS011;28914;48.722;9.332;2022-12-07T05:36:26;7.40;;;6.20;;
43319;SDS011;28914;48.722;9.332;2022-12-07T05:41:47;9.43;;;6.80;;
43319;SDS011;28914;48.722;9.332;2022-12-07T05:47:25;7.57;;;6.67;;
43319;SDS011;28914;48.722;9.332;2022-12-07T05:52:44;10.20;;;7.10;;
43319;SDS011;28914;48.722;9.332;2022-12-07T05:58:03;11.10;;;7.00;;
43319;SDS011;28914;48.722;9.332;2022-12-07T06:03:41;8.00;;;6.50;;
43319;SDS011;28914;48.722;9.332;2022-12-07T06:09:01;6.93;;;5.90;;
43319;SDS011;28914;48.722;9.332;2022-12-07T06:14:20;6.43;;;5.03;;
43319;SDS011;28914;48.722;9.332;2022-12-07T06:19:40;6.13;;;5.13;;
43319;SDS011;28914;48.722;9.332;2022-12-07T06:24:59;6.20;;;5.57;;
43319;SDS011;28914;48.722;9.332;2022-12-07T06:30:20;7.40;;;6.60;;
43319;SDS011;28914;48.722;9.332;2022-12-07T06:35:39;10.63;;;8.20;;
43319;SDS011;28914;48.722;9.332;2022-12-07T06:40:58;8.47;;;7.67;;
43319;SDS011;28914;48.722;9.332;2022-12-07T06:46:17;11.17;;;7.70;;
43319;SDS011;28914;48.722;9.332;2022-12-07T06:51:37;8.47;;;7.23;;
43319;SDS011;28914;48.722;9.332;2022-12-07T06:56:59;8.37;;;7.47;;
43319;SDS011;28914;48.722;9.332;2022-12-07T07:02:19;8.60;;;7.50;;
43319;SDS011;28914;48.722;9.332;2022-12-07T07:07:38;10.33;;;8.87;;
43319;SDS011;28914;48.722;9.332;2022-12-07T07:12:57;14.03;;;11.20;;
43319;SDS011;28914;48.722;9.332;2022-12-07T07:18:16;9.97;;;9.00;;
43319;SDS011;28914;48.722;9.332;2022-12-07T07:23:36;8.70;;;7.80;;
43319;SDS011;28914;48.722;9.332;2022-12-07T07:28:55;8.47;;;7.63;;
43319;SDS011;28914;48.722;9.332;2022-12-07T07:34:14;10.83;;;7.80;;
43319;SDS011;28914;48.722;9.332;2022-12-07T07:39:33;8.70;;;7.20;;
43319;SDS011;28914;48.722;9.332;2022-12-07T07:44:52;9.93;;;8.70;;
43319;SDS011;28914;48.722;9.332;2022-12-07T07:50:12;11.97;;;10.50;;
43319;SDS011;28914;48.722;9.332;2022-12-07T07:55:32;12.33;;;9.63;;
43319;SDS011;28914;48.722;9.332;2022-12-07T08:00:51;10.20;;;8.57;;
43319;SDS011;28914;48.722;9.332;2022-12-07T08:06:10;12.20;;;9.30;;
43319;SDS011;28914;48.722;9.332;2022-12-07T08:11:29;9.87;;;8.87;;
43319;SDS011;28914;48.722;9.332;2022-12-07T08:16:49;9.63;;;8.60;;
43319;SDS011;28914;48.722;9.332;2022-12-07T08:22:08;9.67;;;8.67;;
43319;SDS011;28914;48.722;9.332;2022-12-07T08:27:27;9.43;;;8.50;;
43319;SDS011;28914;48.722;9.332;2022-12-07T08:32:46;11.03;;;8.20;;
43319;SDS011;28914;48.722;9.332;2022-12-07T08:38:06;8.90;;;6.90;;
43319;SDS011;28914;48.722;9.332;2022-12-07T08:43:25;9.70;;;8.70;;
43319;SDS011;28914;48.722;9.332;2022-12-07T08:48:55;8.47;;;7.60;;
43319;SDS011;28914;48.722;9.332;2022-12-07T08:54:20;7.00;;;6.30;;
43319;SDS011;28914;48.722;9.332;2022-12-07T08:59:39;6.97;;;6.27;;
43319;SDS011;28914;48.722;9.332;2022-12-07T09:04:58;7.87;;;7.10;;
43319;SDS011;28914;48.722;9.332;2022-12-07T09:10:18;7.80;;;6.80;;
43319;SDS011;28914;48.722;9.332;2022-12-07T09:15:37;8.73;;;7.83;;
43319;SDS011;28914;48.722;9.332;2022-12-07T09:20:56;7.10;;;6.27;;
43319;SDS011;28914;48.722;9.332;2022-12-07T09:26:15;6.43;;;5.73;;
43319;SDS011;28914;48.722;9.332;2022-12-07T09:31:35;7.10;;;5.73;;
43319;SDS011;28914;48.722;9.332;2022-12-07T09:36:55;6.60;;;5.80;;
43319;SDS011;28914;48.722;9.332;2022-12-07T09:42:26;6.07;;;5.10;;
43319;SDS011;28914;48.722;9.332;2022-12-07T09:47:58;7.47;;;6.70;;
43319;SDS011;28914;48.722;9.332;2022-12-07T09:53:20;5.57;;;4.70;;
43319;SDS011;28914;48.722;9.332;2022-12-07T09:58:46;7.37;;;5.93;;
43319;SDS011;28914;48.722;9.332;2022-12-07T10:09:39;5.87;;;5.37;;
43319;SDS011;28914;48.722;9.332;2022-12-07T10:15:00;7.17;;;6.47;;
43319;SDS011;28914;48.722;9.332;2022-12-07T10:20:25;9.30;;;7.37;;
43319;SDS011;28914;48.722;9.332;2022-12-07T10:25:45;5.70;;;5.10;;
43319;SDS011;28914;48.722;9.332;2022-12-07T10:31:15;6.10;;;5.50;;
43319;SDS011;28914;48.722;9.332;2022-12-07T10:36:38;6.83;;;4.87;;
43319;SDS011;28914;48.722;9.332;2022-12-07T10:53:11;6.27;;;5.67;;
43319;SDS011;28914;48.722;9.332;2022-12-07T11:15:28;5.90;;;5.40;;
43319;SDS011;28914;48.722;9.332;2022-12-07T11:32:39;5.30;;;4.80;;
43319;SDS011;28914;48.722;9.332;2022-12-07T11:38:01;6.13;;;5.17;;
43319;SDS011;28914;48.722;9.332;2022-12-07T11:49:11;6.73;;;5.17;;
43319;SDS011;28914;48.722;9.332;2022-12-07T11:54:39;7.90;;;5.40;;
43319;SDS011;28914;48.722;9.332;2022-12-07T12:00:04;5.83;;;5.10;;
43319;SDS011;28914;48.722;9.332;2022-12-07T12:05:26;4.87;;;4.20;;
43319;SDS011;28914;48.722;9.332;2022-12-07T12:10:58;5.97;;;4.30;;
43319;SDS011;28914;48.722;9.332;2022-12-07T12:22:19;5.30;;;4.50;;
43319;SDS011;28914;48.722;9.332;2022-12-07T12:27:41;5.57;;;5.07;;
43319;SDS011;28914;48.722;9.332;2022-12-07T12:33:13;4.33;;;3.90;;
43319;SDS011;28914;48.722;9.332;2022-12-07T13:06:53;5.00;;;3.83;;
43319;SDS011;28914;48.722;9.332;2022-12-07T13:12:13;3.77;;;3.40;;
43319;SDS011;28914;48.722;9.332;2022-12-07T13:22:53;6.00;;;4.47;;
43319;SDS011;28914;48.722;9.332;2022-12-07T13:28:17;4.57;;;3.87;;
43319;SDS011;28914;48.722;9.332;2022-12-07T13:33:38;5.80;;;4.57;;
43319;SDS011;28914;48.722;9.332;2022-12-07T13:38:58;5.20;;;4.00;;
43319;SDS011;28914;48.722;9.332;2022-12-07T13:44:19;4.60;;;4.20;;
43319;SDS011;28914;48.722;9.332;2022-12-07T13:49:46;4.87;;;4.07;;
43319;SDS011;28914;48.722;9.332;2022-12-07T13:55:14;4.87;;;4.40;;
43319;SDS011;28914;48.722;9.332;2022-12-07T14:00:36;4.90;;;4.40;;
43319;SDS011;28914;48.722;9.332;2022-12-07T14:11:39;4.77;;;4.33;;
43319;SDS011;28914;48.722;9.332;2022-12-07T14:16:59;4.40;;;4.00;;
43319;SDS011;28914;48.722;9.332;2022-12-07T14:22:33;4.53;;;4.13;;
43319;SDS011;28914;48.722;9.332;2022-12-07T14:27:54;5.07;;;4.57;;
43319;SDS011;28914;48.722;9.332;2022-12-07T14:33:18;5.10;;;4.60;;
43319;SDS011;28914;48.722;9.332;2022-12-07T14:38:39;3.90;;;3.50;;
43319;SDS011;28914;48.722;9.332;2022-12-07T14:43:59;5.00;;;4.50;;
43319;SDS011;28914;48.722;9.332;2022-12-07T14:49:18;4.57;;;3.90;;
43319;SDS011;28914;48.722;9.332;2022-12-07T14:54:38;4.30;;;3.90;;
43319;SDS011;28914;48.722;9.332;2022-12-07T14:59:57;4.97;;;4.47;;
43319;SDS011;28914;48.722;9.332;2022-12-07T15:05:16;4.40;;;4.00;;
43319;SDS011;28914;48.722;9.332;2022-12-07T15:10:36;5.80;;;4.37;;
43319;SDS011;28914;48.722;9.332;2022-12-07T15:15:57;4.80;;;4.20;;
43319;SDS011;28914;48.722;9.332;2022-12-07T15:21:17;5.67;;;3.97;;
43319;SDS011;28914;48.722;9.332;2022-12-07T15:26:36;3.73;;;3.33;;
43319;SDS011;28914;48.722;9.332;2022-12-07T15:31:56;5.07;;;3.80;;
43319;SDS011;28914;48.722;9.332;2022-12-07T15:37:15;4.90;;;4.40;;
43319;SDS011;28914;48.722;9.332;2022-12-07T15:42:35;5.83;;;4.40;;
43319;SDS011;28914;48.722;9.332;2022-12-07T15:47:54;4.40;;;4.00;;
43319;SDS011;28914;48.722;9.332;2022-12-07T15:53:14;5.07;;;4.20;;
43319;SDS011;28914;48.722;9.332;2022-12-07T15:58:33;5.70;;;5.10;;
43319;SDS011;28914;48.722;9.332;2022-12-07T16:03:53;6.00;;;5.40;;
43319;SDS011;28914;48.722;9.332;2022-12-07T16:09:12;6.00;;;4.93;;
43319;SDS011;28914;48.722;9.332;2022-12-07T16:14:32;6.00;;;5.30;;
43319;SDS011;28914;48.722;9.332;2022-12-07T16:19:51;7.10;;;6.07;;
43319;SDS011;28914;48.722;9.332;2022-12-07T16:25:12;6.00;;;5.40;;
43319;SDS011;28914;48.722;9.332;2022-12-07T16:30:31;5.83;;;5.20;;
43319;SDS011;28914;48.722;9.332;2022-12-07T16:35:50;5.97;;;5.30;;
43319;SDS011;28914;48.722;9.332;2022-12-07T16:41:10;6.50;;;5.50;;
43319;SDS011;28914;48.722;9.332;2022-12-07T16:46:31;6.13;;;4.80;;
43319;SDS011;28914;48.722;9.332;2022-12-07T16:51:51;5.00;;;4.23;;
43319;SDS011;28914;48.722;9.332;2022-12-07T16:57:10;4.23;;;3.83;;
43319;SDS011;28914;48.722;9.332;2022-12-07T17:02:29;4.33;;;3.70;;
43319;SDS011;28914;48.722;9.332;2022-12-07T17:07:49;20.47;;;10.50;;
43319;SDS011;28914;48.722;9.332;2022-12-07T17:13:08;8.73;;;6.57;;
43319;SDS011;28914;48.722;9.332;2022-12-07T17:18:51;7.03;;;5.13;;
43319;SDS011;28914;48.722;9.332;2022-12-07T17:24:12;5.80;;;5.13;;
43319;SDS011;28914;48.722;9.332;2022-12-07T17:29:33;6.03;;;4.90;;
43319;SDS011;28914;48.722;9.332;2022-12-07T17:34:52;5.73;;;5.13;;
43319;SDS011;28914;48.722;9.332;2022-12-07T17:40:12;6.57;;;5.33;;
43319;SDS011;28914;48.722;9.332;2022-12-07T17:45:32;6.90;;;5.60;;
43319;SDS011;28914;48.722;9.332;2022-12-07T17:50:52;8.33;;;5.50;;
43319;SDS011;28914;48.722;9.332;2022-12-07T17:56:31;7.60;;;6.60;;
43319;SDS011;28914;48.722;9.332;2022-12-07T18:01:51;8.13;;;7.23;;
43319;SDS011;28914;48.722;9.332;2022-12-07T18:07:10;9.40;;;7.10;;
43319;SDS011;28914;48.722;9.332;2022-12-07T18:12:29;8.67;;;7.37;;
43319;SDS011;28914;48.722;9.332;2022-12-07T18:17:49;6.93;;;6.17;;
43319;SDS011;28914;48.722;9.332;2022-12-07T18:23:09;8.07;;;6.60;;
43319;SDS011;28914;48.722;9.332;2022-12-07T18:28:30;6.83;;;6.13;;
43319;SDS011;28914;48.722;9.332;2022-12-07T18:33:49;7.80;;;7.00;;
43319;SDS011;28914;48.722;9.332;2022-12-07T18:39:09;6.83;;;6.13;;
43319;SDS011;28914;48.722;9.332;2022-12-07T18:44:28;7.13;;;5.60;;
43319;SDS011;28914;48.722;9.332;2022-12-07T18:49:47;9.80;;;7.90;;
43319;SDS011;28914;48.722;9.332;2022-12-07T18:55:07;8.77;;;5.97;;
43319;SDS011;28914;48.722;9.332;2022-12-07T19:00:27;7.37;;;5.60;;
43319;SDS011;28914;48.722;9.332;2022-12-07T19:05:47;7.40;;;6.43;;
43319;SDS011;28914;48.722;9.332;2022-12-07T19:11:06;6.27;;;5.60;;
43319;SDS011;28914;48.722;9.332;2022-12-07T19:16:45;6.80;;;5.97;;
43319;SDS011;28914;48.722;9.332;2022-12-07T19:22:07;7.43;;;6.00;;
43319;SDS011;28914;48.722;9.332;2022-12-07T19:27:28;7.97;;;5.77;;
43319;SDS011;28914;48.722;9.332;2022-12-07T19:32:49;7.73;;;5.90;;
43319;SDS011;28914;48.722;9.332;2022-12-07T19:38:08;7.10;;;5.93;;
43319;SDS011;28914;48.722;9.332;2022-12-07T19:43:28;8.47;;;7.60;;
43319;SDS011;28914;48.722;9.332;2022-12-07T19:48:47;8.80;;;7.60;;
43319;SDS011;28914;48.722;9.332;2022-12-07T19:54:06;11.53;;;10.33;;
43319;SDS011;28914;48.722;9.332;2022-12-07T19:59:28;13.37;;;10.60;;
43319;SDS011;28914;48.722;9.332;2022-12-07T20:04:47;12.90;;;11.07;;
43319;SDS011;28914;48.722;9.332;2022-12-07T20:10:06;13.10;;;11.70;;
43319;SDS011;28914;48.722;9.332;2022-12-07T20:15:26;9.30;;;8.30;;
43319;SDS011;28914;48.722;9.332;2022-12-07T20:20:52;9.10;;;8.20;;
43319;SDS011;28914;48.722;9.332;2022-12-07T20:26:13;7.40;;;6.70;;
43319;SDS011;28914;48.722;9.332;2022-12-07T20:31:33;8.43;;;7.63;;
43319;SDS011;28914;48.722;9.332;2022-12-07T20:36:53;9.30;;;8.23;;
43319;SDS011;28914;48.722;9.332;2022-12-07T20:42:12;8.13;;;7.33;;
43319;SDS011;28914;48.722;9.332;2022-12-07T20:47:50;8.00;;;7.20;;
43319;SDS011;28914;48.722;9.332;2022-12-07T20:53:10;10.07;;;7.20;;
43319;SDS011;28914;48.722;9.332;2022-12-07T20:58:29;7.80;;;7.00;;
43319;SDS011;28914;48.722;9.332;2022-12-07T21:03:49;9.37;;;7.20;;
43319;SDS011;28914;48.722;9.332;2022-12-07T21:09:11;9.27;;;7.57;;
43319;SDS011;28914;48.722;9.332;2022-12-07T21:14:31;10.63;;;8.20;;
43319;SDS011;28914;48.722;9.332;2022-12-07T21:19:50;8.07;;;7.27;;
43319;SDS011;28914;48.722;9.332;2022-12-07T21:25:09;7.67;;;6.87;;
43319;SDS011;28914;48.722;9.332;2022-12-07T21:30:28;8.57;;;7.30;;
43319;SDS011;28914;48.722;9.332;2022-12-07T21:35:48;8.90;;;8.00;;
43319;SDS011;28914;48.722;9.332;2022-12-07T21:41:11;8.80;;;7.73;;
43319;SDS011;28914;48.722;9.332;2022-12-07T21:46:30;8.90;;;7.40;;
43319;SDS011;28914;48.722;9.332;2022-12-07T21:51:49;9.47;;;8.37;;
43319;SDS011;28914;48.722;9.332;2022-12-07T21:57:08;10.97;;;9.77;;
43319;SDS011;28914;48.722;9.332;2022-12-07T22:02:28;24.53;;;17.03;;
43319;SDS011;28914;48.722;9.332;2022-12-07T22:07:47;19.30;;;13.73;;
43319;SDS011;28914;48.722;9.332;2022-12-07T22:13:07;16.57;;;11.50;;
43319;SDS011;28914;48.722;9.332;2022-12-07T22:18:27;11.67;;;9.63;;
43319;SDS011;28914;48.722;9.332;2022-12-07T22:23:46;16.33;;;13.33;;
43319;SDS011;28914;48.722;9.332;2022-12-07T22:29:05;12.07;;;10.77;;
43319;SDS011;28914;48.722;9.332;2022-12-07T22:34:24;9.20;;;8.30;;
43319;SDS011;28914;48.722;9.332;2022-12-07T22:39:44;9.13;;;7.97;;
43319;SDS011;28914;48.722;9.332;2022-12-07T22:45:04;11.83;;;9.07;;
43319;SDS011;28914;48.722;9.332;2022-12-07T22:50:24;8.17;;;7.37;;
43319;SDS011;28914;48.722;9.332;2022-12-07T22:55:43;7.30;;;6.27;;
43319;SDS011;28914;48.722;9.332;2022-12-07T23:01:06;6.17;;;5.07;;
43319;SDS011;28914;48.722;9.332;2022-12-07T23:06:27;6.97;;;6.10;;
43319;SDS011;28914;48.722;9.332;2022-12-07T23:11:48;6.80;;;6.10;;
43319;SDS011;28914;48.722;9.332;2022-12-07T23:17:26;18.10;;;12.27;;
43319;SDS011;28914;48.722;9.332;2022-12-07T23:22:46;8.97;;;8.00;;
43319;SDS011;28914;48.722;9.332;2022-12-07T23:28:05;9.03;;;6.73;;
43319;SDS011;28914;48.722;9.332;2022-12-07T23:33:24;9.47;;;7.13;;
43319;SDS011;28914;48.722;9.332;2022-12-07T23:38:44;8.00;;;6.50;;
43319;SDS011;28914;48.722;9.332;2022-12-07T23:44:05;7.43;;;5.67;;
43319;SDS011;28914;48.722;9.332;2022-12-07T23:49:24;6.20;;;5.60;;
43319;SDS011;28914;48.722;9.332;2022-12-07T23:54:43;5.80;;;5.23;;
